createdAt,value
2022-08-01T00:01:15.498Z,18.43
2022-08-01T00:03:43.190Z,18.24
2022-08-01T00:06:10.667Z,18.15
2022-08-01T00:08:38.635Z,18.19
2022-08-01T00:11:06.489Z,18.02
2022-08-01T00:13:34.067Z,18.01
2022-08-01T00:16:01.637Z,18.14
2022-08-01T00:18:29.506Z,17.93
2022-08-01T00:20:57.071Z,17.81
2022-08-01T00:23:24.654Z,18.00
2022-08-01T00:25:53.323Z,17.94
2022-08-01T00:28:20.947Z,17.76
2022-08-01T00:30:48.645Z,17.84
2022-08-01T00:33:16.362Z,17.72
2022-08-01T00:35:44.030Z,18.08
2022-08-01T00:38:12.234Z,17.78
2022-08-01T00:40:39.782Z,18.07
2022-08-01T00:43:07.289Z,17.98
2022-08-01T00:45:34.788Z,17.98
2022-08-01T00:48:02.530Z,18.10
2022-08-01T00:50:30.322Z,17.97
2022-08-01T00:52:59.772Z,17.94
2022-08-01T00:55:28.554Z,17.80
2022-08-01T00:58:02.581Z,17.72
2022-08-01T01:00:34.886Z,17.43
2022-08-01T01:03:26.298Z,17.58
2022-08-01T01:06:31.970Z,17.75
2022-08-01T01:09:03.500Z,17.86
2022-08-01T01:11:44.036Z,17.78
2022-08-01T01:14:20.237Z,17.70
2022-08-01T01:16:48.884Z,17.91
2022-08-01T01:19:21.100Z,17.84
2022-08-01T01:21:59.393Z,17.86
2022-08-01T01:24:44.462Z,17.70
2022-08-01T01:27:29.878Z,17.72
2022-08-01T01:30:01.146Z,17.67
2022-08-01T01:32:37.577Z,17.58
2022-08-01T01:35:15.163Z,17.64
2022-08-01T01:37:44.216Z,17.56
2022-08-01T01:40:13.276Z,17.58
2022-08-01T01:42:43.355Z,17.46
2022-08-01T01:45:12.428Z,17.58
2022-08-01T01:47:42.220Z,17.64
2022-08-01T01:50:12.985Z,17.52
2022-08-01T01:52:43.482Z,17.44
2022-08-01T01:55:11.784Z,17.36
2022-08-01T01:57:42.450Z,17.35
2022-08-01T02:00:12.303Z,17.39
2022-08-01T02:02:41.664Z,17.32
2022-08-01T02:05:11.656Z,17.27
2022-08-01T02:07:40.605Z,17.26
2022-08-01T02:10:09.856Z,17.19
2022-08-01T02:12:42.854Z,17.28
2022-08-01T02:15:11.887Z,17.24
2022-08-01T02:17:43.007Z,17.13
2022-08-01T02:20:11.596Z,17.17
2022-08-01T02:22:43.905Z,17.25
2022-08-01T02:25:19.354Z,17.35
2022-08-01T02:27:55.088Z,17.39
2022-08-01T02:30:25.828Z,17.40
2022-08-01T02:33:04.125Z,17.63
2022-08-01T02:35:36.189Z,17.52
2022-08-01T02:38:25.925Z,17.44
2022-08-01T02:40:55.805Z,17.56
2022-08-01T02:43:25.959Z,17.51
2022-08-01T02:46:02.646Z,17.88
2022-08-01T02:48:32.600Z,17.88
2022-08-01T02:51:05.045Z,17.66
2022-08-01T02:53:44.015Z,17.65
2022-08-01T02:56:13.064Z,17.73
2022-08-01T02:58:42.945Z,17.77
2022-08-01T03:01:11.389Z,17.65
2022-08-01T03:03:39.624Z,17.84
2022-08-01T03:06:08.353Z,17.82
2022-08-01T03:08:38.082Z,17.83
2022-08-01T03:11:07.182Z,17.82
2022-08-01T03:13:35.051Z,17.92
2022-08-01T03:16:05.084Z,17.92
2022-08-01T03:18:34.179Z,17.71
2022-08-01T03:21:02.664Z,17.76
2022-08-01T03:23:37.756Z,17.91
2022-08-01T03:26:07.207Z,17.90
2022-08-01T03:28:34.773Z,17.76
2022-08-01T03:31:03.489Z,17.84
2022-08-01T03:33:31.320Z,17.85
2022-08-01T03:36:01.412Z,17.90
2022-08-01T03:38:35.246Z,17.95
2022-08-01T03:41:23.158Z,18.08
2022-08-01T03:43:59.523Z,18.04
2022-08-01T03:46:53.670Z,18.08
2022-08-01T03:49:26.970Z,18.01
2022-08-01T03:51:55.753Z,18.07
2022-08-01T03:54:26.718Z,18.12
2022-08-01T03:56:55.720Z,18.14
2022-08-01T03:59:23.675Z,18.19
2022-08-01T04:01:51.626Z,18.09
2022-08-01T04:04:19.666Z,18.16
2022-08-01T04:06:47.222Z,18.11
2022-08-01T04:09:14.778Z,18.21
2022-08-01T04:11:42.770Z,18.18
2022-08-01T04:14:10.280Z,18.21
2022-08-01T04:16:38.446Z,18.38
2022-08-01T04:19:08.652Z,18.41
2022-08-01T04:21:37.646Z,18.50
2022-08-01T04:24:11.689Z,18.51
2022-08-01T04:26:41.166Z,18.37
2022-08-01T04:29:10.479Z,18.34
2022-08-01T04:31:40.709Z,18.46
2022-08-01T04:34:11.099Z,18.59
2022-08-01T04:36:42.937Z,18.54
2022-08-01T04:39:11.679Z,18.61
2022-08-01T04:41:40.948Z,18.79
2022-08-01T04:44:08.586Z,18.78
2022-08-01T04:46:38.003Z,18.81
2022-08-01T04:49:08.068Z,18.76
2022-08-01T04:51:36.439Z,18.66
2022-08-01T04:54:04.167Z,18.76
2022-08-01T04:56:31.672Z,18.79
2022-08-01T04:59:20.189Z,18.79
2022-08-01T05:01:51.737Z,18.75
2022-08-01T05:04:19.642Z,18.85
2022-08-01T05:06:47.170Z,18.95
2022-08-01T05:09:14.944Z,18.93
2022-08-01T05:11:42.484Z,18.84
2022-08-01T05:14:10.029Z,18.79
2022-08-01T05:16:37.626Z,18.90
2022-08-01T05:19:05.218Z,18.97
2022-08-01T05:21:36.023Z,18.98
2022-08-01T05:24:03.764Z,19.00
2022-08-01T05:26:32.702Z,19.04
2022-08-01T05:29:00.977Z,19.03
2022-08-01T05:31:29.459Z,19.08
2022-08-01T05:33:56.991Z,19.15
2022-08-01T05:36:24.548Z,19.18
2022-08-01T05:38:52.419Z,19.30
2022-08-01T05:41:20.178Z,19.22
2022-08-01T05:43:48.023Z,19.23
2022-08-01T05:46:15.878Z,19.05
2022-08-01T05:48:43.592Z,19.25
2022-08-01T05:51:11.100Z,19.37
2022-08-01T05:53:38.758Z,19.38
2022-08-01T05:56:06.435Z,19.47
2022-08-01T05:58:34.140Z,19.45
2022-08-01T06:01:01.762Z,19.37
2022-08-01T06:03:32.221Z,19.42
2022-08-01T06:06:00.484Z,19.52
2022-08-01T06:08:28.048Z,19.58
2022-08-01T06:10:55.796Z,19.63
2022-08-01T06:13:23.490Z,19.73
2022-08-01T06:15:51.590Z,19.48
2022-08-01T06:18:19.453Z,19.59
2022-08-01T06:20:47.918Z,19.52
2022-08-01T06:23:32.096Z,19.60
2022-08-01T06:26:00.585Z,19.44
2022-08-01T06:28:28.214Z,19.68
2022-08-01T06:30:56.231Z,19.73
2022-08-01T06:33:23.833Z,20.06
2022-08-01T06:35:51.492Z,20.38
2022-08-01T06:38:18.989Z,20.67
2022-08-01T06:40:46.630Z,20.86
2022-08-01T06:43:14.169Z,21.23
2022-08-01T06:45:41.842Z,21.45
2022-08-01T06:48:09.594Z,21.45
2022-08-01T06:50:37.548Z,21.80
2022-08-01T06:53:05.480Z,22.35
2022-08-01T06:55:33.057Z,22.57
2022-08-01T06:58:00.671Z,23.31
2022-08-01T07:00:28.432Z,23.79
2022-08-01T07:02:57.797Z,23.94
2022-08-01T07:05:25.783Z,23.96
2022-08-01T07:07:53.462Z,23.48
2022-08-01T07:10:21.365Z,23.12
2022-08-01T07:12:49.109Z,22.90
2022-08-01T07:15:16.947Z,22.68
2022-08-01T07:17:44.673Z,22.90
2022-08-01T07:20:16.066Z,23.79
2022-08-01T07:22:47.420Z,24.26
2022-08-01T07:25:15.978Z,25.21
2022-08-01T07:27:43.632Z,25.57
2022-08-01T07:30:12.019Z,25.33
2022-08-01T07:32:39.855Z,26.07
2022-08-01T07:35:07.847Z,26.16
2022-08-01T07:37:47.879Z,26.67
2022-08-01T07:40:18.718Z,26.99
2022-08-01T07:42:48.115Z,26.80
2022-08-01T07:45:16.337Z,26.80
2022-08-01T07:47:44.209Z,26.93
2022-08-01T07:50:13.724Z,27.18
2022-08-01T07:52:41.964Z,27.52
2022-08-01T07:55:10.943Z,27.19
2022-08-01T07:57:39.633Z,28.29
2022-08-01T08:00:09.954Z,28.24
2022-08-01T08:02:38.031Z,27.75
2022-08-01T08:05:07.572Z,27.77
2022-08-01T08:07:35.692Z,26.99
2022-08-01T08:10:05.817Z,26.59
2022-08-01T08:12:34.345Z,26.45
2022-08-01T08:15:02.281Z,26.56
2022-08-01T08:17:35.607Z,26.02
2022-08-01T08:20:09.232Z,25.52
2022-08-01T08:22:38.783Z,24.93
2022-08-01T08:25:08.459Z,24.60
2022-08-01T08:27:37.842Z,24.14
2022-08-01T08:30:12.136Z,24.08
2022-08-01T08:32:41.144Z,23.89
2022-08-01T08:35:11.957Z,23.68
2022-08-01T08:37:47.289Z,23.59
2022-08-01T08:40:16.782Z,23.38
2022-08-01T08:42:45.295Z,23.27
2022-08-01T08:45:12.788Z,23.35
2022-08-01T08:47:42.874Z,23.34
2022-08-01T08:50:11.065Z,23.23
2022-08-01T08:52:40.204Z,23.25
2022-08-01T08:55:09.416Z,22.90
2022-08-01T08:57:41.225Z,22.89
2022-08-01T09:00:10.858Z,22.93
2022-08-01T09:02:44.349Z,22.90
2022-08-01T09:05:17.479Z,23.04
2022-08-01T09:07:46.933Z,23.04
2022-08-01T09:10:14.733Z,23.10
2022-08-01T09:13:12.814Z,23.05
2022-08-01T09:15:43.456Z,22.91
2022-08-01T09:18:44.727Z,22.99
2022-08-01T09:21:25.080Z,22.83
2022-08-01T09:23:55.165Z,22.78
2022-08-01T09:26:31.592Z,22.41
2022-08-01T09:29:00.652Z,22.70
2022-08-01T09:31:38.526Z,22.80
2022-08-01T09:34:06.605Z,22.76
2022-08-01T09:37:12.541Z,22.51
2022-08-01T09:39:44.309Z,22.55
2022-08-01T09:42:28.851Z,22.36
2022-08-01T09:44:56.856Z,22.48
2022-08-01T09:47:39.111Z,22.48
2022-08-01T09:50:11.102Z,22.33
2022-08-01T09:52:41.299Z,22.06
2022-08-01T09:55:09.439Z,22.36
2022-08-01T09:57:37.202Z,22.40
2022-08-01T10:00:05.955Z,22.30
2022-08-01T10:02:35.083Z,22.42
2022-08-01T10:05:08.933Z,22.64
2022-08-01T10:07:55.759Z,22.54
2022-08-01T10:10:29.149Z,22.57
2022-08-01T10:13:00.736Z,22.44
2022-08-01T10:15:36.357Z,22.40
2022-08-01T10:18:16.795Z,22.45
2022-08-01T10:20:56.663Z,22.22
2022-08-01T10:23:41.272Z,22.31
2022-08-01T10:26:11.375Z,22.31
2022-08-01T10:28:40.501Z,22.05
2022-08-01T10:31:12.625Z,22.33
2022-08-01T10:33:52.528Z,22.12
2022-08-01T10:36:22.685Z,22.06
2022-08-01T10:38:51.064Z,22.00
2022-08-01T10:41:20.322Z,21.93
2022-08-01T10:43:47.909Z,21.94
2022-08-01T10:46:16.567Z,21.98
2022-08-01T10:48:58.897Z,21.98
2022-08-01T10:51:51.287Z,21.76
2022-08-01T10:54:17.589Z,21.93
2022-08-01T10:56:50.105Z,21.97
2022-08-01T10:59:51.126Z,22.05
2022-08-01T11:02:12.271Z,22.05
2022-08-01T11:05:08.342Z,21.85
2022-08-01T11:07:56.245Z,22.08
2022-08-01T11:10:34.349Z,22.11
2022-08-01T11:13:04.602Z,22.09
2022-08-01T11:15:32.481Z,22.06
2022-08-01T11:18:03.073Z,22.17
2022-08-01T11:20:41.587Z,22.19
2022-08-01T11:23:16.859Z,22.13
2022-08-01T11:26:03.004Z,22.14
2022-08-01T11:28:36.489Z,22.03
2022-08-01T11:31:14.495Z,22.22
2022-08-01T11:33:42.423Z,22.02
2022-08-01T11:36:15.496Z,22.18
2022-08-01T11:38:58.970Z,22.28
2022-08-01T11:41:38.664Z,22.28
2022-08-01T11:44:12.129Z,22.40
2022-08-01T11:47:09.218Z,22.41
2022-08-01T11:49:38.985Z,22.21
2022-08-01T11:52:36.678Z,22.07
2022-08-01T11:55:11.669Z,22.10
2022-08-01T11:57:39.985Z,21.97
2022-08-01T12:00:16.599Z,22.11
2022-08-01T12:02:47.371Z,21.80
2022-08-01T12:05:24.918Z,21.77
2022-08-01T12:07:53.999Z,22.00
2022-08-01T12:10:24.726Z,21.81
2022-08-01T12:12:55.718Z,21.79
2022-08-01T12:15:25.155Z,21.73
2022-08-01T12:18:01.985Z,21.84
2022-08-01T12:20:35.018Z,21.81
2022-08-01T12:23:14.018Z,21.96
2022-08-01T12:25:44.798Z,21.90
2022-08-01T12:28:16.294Z,21.85
2022-08-01T12:30:44.180Z,21.72
2022-08-01T12:33:18.927Z,21.80
2022-08-01T12:35:47.783Z,21.54
2022-08-01T12:38:18.473Z,21.64
2022-08-01T12:40:53.241Z,21.54
2022-08-01T12:43:28.484Z,21.59
2022-08-01T12:46:01.538Z,21.30
2022-08-01T12:48:32.036Z,21.33
2022-08-01T12:51:02.367Z,21.15
2022-08-01T12:53:40.862Z,21.19
2022-08-01T12:56:11.587Z,21.07
2022-08-01T12:58:39.731Z,21.39
2022-08-01T13:01:10.570Z,21.50
2022-08-01T13:03:38.938Z,21.60
2022-08-01T13:06:16.606Z,21.53
2022-08-01T13:08:46.041Z,21.22
2022-08-01T13:11:16.811Z,21.29
2022-08-01T13:13:52.226Z,21.18
2022-08-01T13:16:27.940Z,21.20
2022-08-01T13:19:07.190Z,21.47
2022-08-01T13:21:53.094Z,21.62
2022-08-01T13:24:30.180Z,21.61
2022-08-01T13:27:01.737Z,21.61
2022-08-01T13:29:43.845Z,21.61
2022-08-01T13:32:29.381Z,21.59
2022-08-01T13:35:07.014Z,21.26
2022-08-01T13:37:39.062Z,21.35
2022-08-01T13:40:09.956Z,21.27
2022-08-01T13:42:39.263Z,21.14
2022-08-01T13:45:14.618Z,21.01
2022-08-01T13:48:03.814Z,20.88
2022-08-01T13:50:31.875Z,21.03
2022-08-01T13:52:59.904Z,21.23
2022-08-01T13:55:32.333Z,21.22
2022-08-01T13:58:02.290Z,21.20
2022-08-01T14:00:30.140Z,21.26
2022-08-01T14:02:57.638Z,21.32
2022-08-01T14:05:25.362Z,21.37
2022-08-01T14:07:56.426Z,21.24
2022-08-01T14:10:25.287Z,21.17
2022-08-01T14:12:53.061Z,21.12
2022-08-01T14:15:37.311Z,21.16
2022-08-01T14:18:09.289Z,20.95
2022-08-01T14:20:40.006Z,20.89
2022-08-01T14:23:08.745Z,20.81
2022-08-01T14:26:01.731Z,20.87
2022-08-01T14:28:28.491Z,20.84
2022-08-01T14:30:59.067Z,20.81
2022-08-01T14:33:27.630Z,20.67
2022-08-01T14:36:05.994Z,20.82
2022-08-01T14:38:42.953Z,20.95
2022-08-01T14:41:17.389Z,20.85
2022-08-01T14:43:45.640Z,20.73
2022-08-01T14:46:13.994Z,20.33
2022-08-01T14:48:42.056Z,20.50
2022-08-01T14:51:10.003Z,20.64
2022-08-01T14:53:38.631Z,20.49
2022-08-01T14:56:06.946Z,20.53
2022-08-01T14:58:35.872Z,20.57
2022-08-01T15:01:05.502Z,20.40
2022-08-01T15:03:33.338Z,20.36
2022-08-01T15:06:01.484Z,20.06
2022-08-01T15:08:30.947Z,20.27
2022-08-01T15:10:58.802Z,20.19
2022-08-01T15:13:26.538Z,20.23
2022-08-01T15:15:54.762Z,20.28
2022-08-01T15:18:29.118Z,20.26
2022-08-01T15:20:58.434Z,20.17
2022-08-01T15:23:26.257Z,20.30
2022-08-01T15:25:53.815Z,20.32
2022-08-01T15:28:21.419Z,20.21
2022-08-01T15:30:49.013Z,20.35
2022-08-01T15:33:16.835Z,20.40
2022-08-01T15:35:44.387Z,20.21
2022-08-01T15:38:12.102Z,20.32
2022-08-01T15:40:39.746Z,20.20
2022-08-01T15:43:07.469Z,20.04
2022-08-01T15:45:47.536Z,20.06
2022-08-01T15:48:18.765Z,20.01
2022-08-01T15:50:46.366Z,20.21
2022-08-01T15:53:14.049Z,20.30
2022-08-01T15:55:41.865Z,20.18
2022-08-01T15:58:16.815Z,19.98
2022-08-01T16:00:44.361Z,19.82
2022-08-01T16:03:12.006Z,19.76
2022-08-01T16:05:43.804Z,19.75
2022-08-01T16:08:13.225Z,19.79
2022-08-01T16:10:41.605Z,19.93
2022-08-01T16:13:09.838Z,19.88
2022-08-01T16:15:39.194Z,19.74
2022-08-01T16:18:07.991Z,19.63
2022-08-01T16:20:38.204Z,19.69
2022-08-01T16:23:08.639Z,19.77
2022-08-01T16:25:36.463Z,19.83
2022-08-01T16:28:04.604Z,19.78
2022-08-01T16:30:32.658Z,19.66
2022-08-01T16:33:01.358Z,19.61
2022-08-01T16:35:36.456Z,19.66
2022-08-01T16:38:05.767Z,19.79
2022-08-01T16:40:46.344Z,19.87
2022-08-01T16:43:16.591Z,19.84
2022-08-01T16:45:45.196Z,19.84
2022-08-01T16:48:21.371Z,19.82
2022-08-01T16:50:49.948Z,19.73
2022-08-01T16:53:21.390Z,19.62
2022-08-01T16:55:50.919Z,19.54
2022-08-01T16:58:27.148Z,19.58
2022-08-01T17:00:57.759Z,19.50
2022-08-01T17:03:51.830Z,19.53
2022-08-01T17:06:22.624Z,19.49
2022-08-01T17:08:50.369Z,19.48
2022-08-01T17:11:18.109Z,19.43
2022-08-01T17:13:45.821Z,19.50
2022-08-01T17:16:13.415Z,19.50
2022-08-01T17:18:40.989Z,19.46
2022-08-01T17:21:09.162Z,19.40
2022-08-01T17:23:36.972Z,19.47
2022-08-01T17:26:04.929Z,19.40
2022-08-01T17:28:32.945Z,19.47
2022-08-01T17:31:00.771Z,19.43
2022-08-01T17:33:45.853Z,19.45
2022-08-01T17:36:17.922Z,19.52
2022-08-01T17:38:45.667Z,19.51
2022-08-01T17:41:13.418Z,19.47
2022-08-01T17:43:40.982Z,19.50
2022-08-01T17:46:08.574Z,19.58
2022-08-01T17:48:36.442Z,19.53
2022-08-01T17:51:04.405Z,19.51
2022-08-01T17:53:31.989Z,19.43
2022-08-01T17:56:02.527Z,19.46
2022-08-01T17:58:48.835Z,19.58
2022-08-01T18:01:19.356Z,19.62
2022-08-01T18:03:47.456Z,19.56
2022-08-01T18:06:17.615Z,19.46
2022-08-01T18:08:49.688Z,19.42
2022-08-01T18:11:21.170Z,19.35
2022-08-01T18:13:49.003Z,19.40
2022-08-01T18:16:16.958Z,19.43
2022-08-01T18:18:44.733Z,19.43
2022-08-01T18:21:12.758Z,19.42
2022-08-01T18:23:40.443Z,19.46
2022-08-01T18:26:11.915Z,19.36
2022-08-01T18:28:46.897Z,19.36
2022-08-01T18:31:20.512Z,19.30
2022-08-01T18:33:48.791Z,19.33
2022-08-01T18:36:29.118Z,19.27
2022-08-01T18:39:05.367Z,19.23
2022-08-01T18:41:34.588Z,19.25
2022-08-01T18:44:08.075Z,19.18
2022-08-01T18:46:38.579Z,19.09
2022-08-01T18:49:11.098Z,19.13
2022-08-01T18:51:44.374Z,19.01
2022-08-01T18:54:14.210Z,19.04
2022-08-01T18:56:43.293Z,19.08
2022-08-01T18:59:12.054Z,19.00
2022-08-01T19:01:40.226Z,18.97
2022-08-01T19:04:08.868Z,18.93
2022-08-01T19:06:37.280Z,18.92
2022-08-01T19:09:05.688Z,18.89
2022-08-01T19:11:33.968Z,18.89
2022-08-01T19:14:03.091Z,18.93
2022-08-01T19:16:31.157Z,18.91
2022-08-01T19:18:59.083Z,18.89
2022-08-01T19:21:27.227Z,18.96
2022-08-01T19:24:13.281Z,18.95
2022-08-01T19:26:46.729Z,18.90
2022-08-01T19:29:18.901Z,18.85
2022-08-01T19:31:49.153Z,18.73
2022-08-01T19:34:26.514Z,18.83
2022-08-01T19:36:57.133Z,18.77
2022-08-01T19:39:27.236Z,18.84
2022-08-01T19:41:56.847Z,18.89
2022-08-01T19:44:25.726Z,18.90
2022-08-01T19:46:53.397Z,18.95
2022-08-01T19:49:22.941Z,18.92
2022-08-01T19:51:54.471Z,18.80
2022-08-01T19:54:26.872Z,18.79
2022-08-01T19:56:54.725Z,18.73
2022-08-01T19:59:23.746Z,18.78
2022-08-01T20:01:52.631Z,18.85
2022-08-01T20:04:20.585Z,18.89
2022-08-01T20:06:48.728Z,18.87
2022-08-01T20:09:16.383Z,18.90
2022-08-01T20:11:46.228Z,18.82
2022-08-01T20:14:17.519Z,18.87
2022-08-01T20:16:45.512Z,18.83
2022-08-01T20:19:13.680Z,18.77
2022-08-01T20:22:02.558Z,18.79
2022-08-01T20:24:46.034Z,18.81
2022-08-01T20:27:15.650Z,18.86
2022-08-01T20:29:45.057Z,18.81
2022-08-01T20:32:13.199Z,18.78
2022-08-01T20:34:41.210Z,18.67
2022-08-01T20:37:12.881Z,18.65
2022-08-01T20:39:43.882Z,18.61
2022-08-01T20:42:14.186Z,18.63
2022-08-01T20:44:43.418Z,18.63
2022-08-01T20:47:11.167Z,18.64
2022-08-01T20:49:40.742Z,18.65
2022-08-01T20:52:11.067Z,18.64
2022-08-01T20:54:42.000Z,18.65
2022-08-01T20:57:22.148Z,18.61
2022-08-01T21:00:05.934Z,18.60
2022-08-01T21:03:02.782Z,18.60
2022-08-01T21:05:31.990Z,18.54
2022-08-01T21:08:17.569Z,18.49
2022-08-01T21:10:47.630Z,18.37
2022-08-01T21:13:27.501Z,18.35
2022-08-01T21:16:23.325Z,18.40
2022-08-01T21:22:10.375Z,18.49
2022-08-01T21:24:58.208Z,18.44
2022-08-01T21:27:33.101Z,18.40
2022-08-01T21:30:09.352Z,18.42
2022-08-01T21:32:37.869Z,18.45
2022-08-01T21:35:07.198Z,18.43
2022-08-01T21:37:49.038Z,18.44
2022-08-01T21:40:23.324Z,18.41
2022-08-01T21:42:52.876Z,18.46
2022-08-01T21:45:23.519Z,18.45
2022-08-01T21:47:52.014Z,18.43
2022-08-01T21:50:20.472Z,18.33
2022-08-01T21:53:05.937Z,18.35
2022-08-01T21:55:51.843Z,18.40
2022-08-01T21:58:54.758Z,18.45
2022-08-01T22:01:31.542Z,18.45
2022-08-01T22:04:02.664Z,18.39
2022-08-01T22:06:34.434Z,18.44
2022-08-01T22:09:06.416Z,18.39
2022-08-01T22:11:37.190Z,18.37
2022-08-01T22:14:06.362Z,18.39
2022-08-01T22:16:40.666Z,18.37
2022-08-01T22:19:37.581Z,18.39
2022-08-01T22:22:02.453Z,18.37
2022-08-01T22:24:33.013Z,18.41
2022-08-01T22:27:04.413Z,18.44
2022-08-01T22:29:32.643Z,18.42
2022-08-01T22:32:01.501Z,18.44
2022-08-01T22:34:29.039Z,18.46
2022-08-01T22:36:56.508Z,18.47
2022-08-01T22:39:25.914Z,18.46
2022-08-01T22:42:11.561Z,18.44
2022-08-01T22:44:51.742Z,18.45
2022-08-01T22:47:46.420Z,18.42
2022-08-01T22:50:36.221Z,18.40
2022-08-01T22:53:04.048Z,18.42
2022-08-01T22:55:58.310Z,18.42
2022-08-01T22:58:25.199Z,18.42
2022-08-01T23:00:59.252Z,18.42
2022-08-01T23:03:30.406Z,18.43
2022-08-01T23:06:22.523Z,18.41
2022-08-01T23:08:50.952Z,18.36
2022-08-01T23:11:21.376Z,18.33
2022-08-01T23:13:53.130Z,18.36
2022-08-01T23:16:22.072Z,18.37
2022-08-01T23:18:49.644Z,18.36
2022-08-01T23:21:18.654Z,18.38
2022-08-01T23:23:47.367Z,18.33
2022-08-01T23:26:16.549Z,18.35
2022-08-01T23:28:45.856Z,18.31
2022-08-01T23:31:14.143Z,18.36
2022-08-01T23:33:41.982Z,18.30
2022-08-01T23:36:09.711Z,18.26
2022-08-01T23:38:37.860Z,18.23
2022-08-01T23:41:14.910Z,18.20
2022-08-01T23:43:52.226Z,18.18
2022-08-01T23:46:20.301Z,18.11
2022-08-01T23:48:48.006Z,18.13
2022-08-01T23:51:24.196Z,18.14
2022-08-01T23:53:52.421Z,18.14
2022-08-01T23:56:25.168Z,18.08
2022-08-01T23:58:53.135Z,18.08
